sensor_id;sensor_type;location;lat;lon;timestamp;pressure;altitude;pressure_sealevel;temperature;humidity
85623;BME280;76049;43.076;25.632;2024-02-16T00:00:35;100222.29;;;8.60;61.93
85623;BME280;76049;43.076;25.632;2024-02-16T00:06:13;100224.45;;;8.59;61.67
85623;BME280;76049;43.076;25.632;2024-02-16T00:11:21;100219.88;;;8.57;61.21
85623;BME280;76049;43.076;25.632;2024-02-16T00:16:29;100221.23;;;8.59;61.26
85623;BME280;76049;43.076;25.632;2024-02-16T00:21:36;100231.52;;;8.62;61.32
85623;BME280;76049;43.076;25.632;2024-02-16T00:26:46;100233.23;;;8.60;61.57
85623;BME280;76049;43.076;25.632;2024-02-16T00:31:54;100230.54;;;8.55;61.95
85623;BME280;76049;43.076;25.632;2024-02-16T00:37:02;100215.88;;;8.52;62.13
85623;BME280;76049;43.076;25.632;2024-02-16T00:42:14;100217.61;;;8.53;61.96
85623;BME280;76049;43.076;25.632;2024-02-16T00:47:22;100215.27;;;8.62;61.76
85623;BME280;76049;43.076;25.632;2024-02-16T00:52:29;100223.23;;;8.66;62.18
85623;BME280;76049;43.076;25.632;2024-02-16T00:57:37;100226.34;;;8.54;62.28
85623;BME280;76049;43.076;25.632;2024-02-16T01:02:45;100219.64;;;8.46;62.24
85623;BME280;76049;43.076;25.632;2024-02-16T01:07:52;100217.38;;;8.39;62.58
85623;BME280;76049;43.076;25.632;2024-02-16T01:13:00;100221.07;;;8.36;62.11
85623;BME280;76049;43.076;25.632;2024-02-16T01:18:09;100211.27;;;8.34;62.25
85623;BME280;76049;43.076;25.632;2024-02-16T01:23:17;100211.56;;;8.34;62.49
85623;BME280;76049;43.076;25.632;2024-02-16T01:28:25;100210.08;;;8.35;62.31
85623;BME280;76049;43.076;25.632;2024-02-16T01:33:34;100204.83;;;8.37;62.52
85623;BME280;76049;43.076;25.632;2024-02-16T01:38:42;100203.93;;;8.41;62.84
85623;BME280;76049;43.076;25.632;2024-02-16T01:43:53;100197.00;;;8.36;63.07
85623;BME280;76049;43.076;25.632;2024-02-16T01:49:02;100192.19;;;8.25;63.22
85623;BME280;76049;43.076;25.632;2024-02-16T01:54:10;100196.05;;;8.22;63.65
85623;BME280;76049;43.076;25.632;2024-02-16T01:59:18;100195.30;;;8.16;63.47
85623;BME280;76049;43.076;25.632;2024-02-16T02:04:26;100194.15;;;8.09;63.42
85623;BME280;76049;43.076;25.632;2024-02-16T02:09:34;100194.55;;;8.04;63.48
85623;BME280;76049;43.076;25.632;2024-02-16T02:14:43;100202.61;;;8.00;63.26
85623;BME280;76049;43.076;25.632;2024-02-16T02:19:52;100202.67;;;7.98;63.45
85623;BME280;76049;43.076;25.632;2024-02-16T02:25:03;100199.20;;;8.06;63.67
85623;BME280;76049;43.076;25.632;2024-02-16T02:30:12;100201.62;;;8.15;63.83
85623;BME280;76049;43.076;25.632;2024-02-16T02:35:20;100203.09;;;8.17;63.83
85623;BME280;76049;43.076;25.632;2024-02-16T02:40:28;100210.93;;;8.21;63.84
85623;BME280;76049;43.076;25.632;2024-02-16T02:45:36;100217.80;;;8.24;63.53
85623;BME280;76049;43.076;25.632;2024-02-16T02:50:45;100225.05;;;8.23;63.37
85623;BME280;76049;43.076;25.632;2024-02-16T02:55:53;100225.81;;;8.12;63.54
85623;BME280;76049;43.076;25.632;2024-02-16T03:01:01;100230.92;;;8.07;63.71
85623;BME280;76049;43.076;25.632;2024-02-16T03:06:11;100231.51;;;8.05;63.57
85623;BME280;76049;43.076;25.632;2024-02-16T03:11:20;100235.47;;;8.05;63.53
85623;BME280;76049;43.076;25.632;2024-02-16T03:16:28;100242.69;;;8.09;63.57
85623;BME280;76049;43.076;25.632;2024-02-16T03:21:35;100241.95;;;8.11;63.82
85623;BME280;76049;43.076;25.632;2024-02-16T03:26:43;100240.38;;;8.09;63.69
85623;BME280;76049;43.076;25.632;2024-02-16T03:31:51;100247.41;;;8.12;63.57
85623;BME280;76049;43.076;25.632;2024-02-16T03:36:59;100248.86;;;8.11;64.03
85623;BME280;76049;43.076;25.632;2024-02-16T03:42:08;100253.87;;;8.07;64.32
85623;BME280;76049;43.076;25.632;2024-02-16T03:47:16;100254.47;;;8.02;64.25
85623;BME280;76049;43.076;25.632;2024-02-16T03:52:25;100261.91;;;7.96;64.29
85623;BME280;76049;43.076;25.632;2024-02-16T03:57:33;100262.73;;;7.91;63.99
85623;BME280;76049;43.076;25.632;2024-02-16T04:02:41;100261.79;;;7.97;63.93
85623;BME280;76049;43.076;25.632;2024-02-16T04:07:50;100260.02;;;8.03;64.02
85623;BME280;76049;43.076;25.632;2024-02-16T04:12:58;100261.85;;;8.01;64.16
85623;BME280;76049;43.076;25.632;2024-02-16T04:18:06;100258.00;;;7.98;63.87
85623;BME280;76049;43.076;25.632;2024-02-16T04:23:15;100261.64;;;7.94;64.01
85623;BME280;76049;43.076;25.632;2024-02-16T04:28:24;100262.06;;;7.93;63.99
85623;BME280;76049;43.076;25.632;2024-02-16T04:33:33;100266.04;;;7.96;64.00
85623;BME280;76049;43.076;25.632;2024-02-16T04:38:40;100273.33;;;7.97;64.31
85623;BME280;76049;43.076;25.632;2024-02-16T04:43:49;100274.99;;;8.01;64.85
85623;BME280;76049;43.076;25.632;2024-02-16T04:48:56;100274.20;;;8.03;64.30
85623;BME280;76049;43.076;25.632;2024-02-16T04:54:05;100279.98;;;8.07;63.68
85623;BME280;76049;43.076;25.632;2024-02-16T04:59:12;100281.59;;;8.08;63.79
85623;BME280;76049;43.076;25.632;2024-02-16T05:04:20;100281.46;;;8.09;63.92
85623;BME280;76049;43.076;25.632;2024-02-16T05:09:28;100283.48;;;8.09;64.26
85623;BME280;76049;43.076;25.632;2024-02-16T05:14:36;100289.02;;;8.03;64.60
85623;BME280;76049;43.076;25.632;2024-02-16T05:19:45;100290.38;;;7.88;65.23
85623;BME280;76049;43.076;25.632;2024-02-16T05:24:53;100301.96;;;7.94;66.55
85623;BME280;76049;43.076;25.632;2024-02-16T05:30:02;100304.02;;;8.13;66.78
85623;BME280;76049;43.076;25.632;2024-02-16T05:35:11;100309.29;;;8.31;65.74
85623;BME280;76049;43.076;25.632;2024-02-16T05:40:20;100303.94;;;8.33;64.89
85623;BME280;76049;43.076;25.632;2024-02-16T05:45:30;100313.23;;;8.26;64.64
85623;BME280;76049;43.076;25.632;2024-02-16T05:50:38;100324.60;;;8.19;64.60
85623;BME280;76049;43.076;25.632;2024-02-16T05:55:46;100326.44;;;8.13;64.56
85623;BME280;76049;43.076;25.632;2024-02-16T06:00:56;100331.64;;;8.09;63.78
85623;BME280;76049;43.076;25.632;2024-02-16T06:06:06;100335.78;;;8.05;63.57
85623;BME280;76049;43.076;25.632;2024-02-16T06:11:14;100336.91;;;8.11;63.63
85623;BME280;76049;43.076;25.632;2024-02-16T06:16:23;100339.06;;;8.17;63.63
85623;BME280;76049;43.076;25.632;2024-02-16T06:21:32;100339.15;;;8.24;63.13
85623;BME280;76049;43.076;25.632;2024-02-16T06:26:39;100341.44;;;8.28;63.82
85623;BME280;76049;43.076;25.632;2024-02-16T06:31:49;100345.29;;;8.26;63.99
85623;BME280;76049;43.076;25.632;2024-02-16T06:36:58;100342.58;;;8.25;64.10
85623;BME280;76049;43.076;25.632;2024-02-16T06:42:07;100344.41;;;8.26;63.92
85623;BME280;76049;43.076;25.632;2024-02-16T06:47:18;100338.88;;;8.33;64.33
85623;BME280;76049;43.076;25.632;2024-02-16T06:52:27;100335.15;;;8.39;64.34
85623;BME280;76049;43.076;25.632;2024-02-16T06:57:35;100342.85;;;8.56;63.95
85623;BME280;76049;43.076;25.632;2024-02-16T07:02:42;100346.40;;;8.68;63.54
85623;BME280;76049;43.076;25.632;2024-02-16T07:07:50;100347.46;;;8.76;63.32
85623;BME280;76049;43.076;25.632;2024-02-16T07:12:58;100356.30;;;8.81;62.70
85623;BME280;76049;43.076;25.632;2024-02-16T07:18:07;100354.45;;;8.68;62.39
85623;BME280;76049;43.076;25.632;2024-02-16T07:23:15;100355.48;;;8.60;62.34
85623;BME280;76049;43.076;25.632;2024-02-16T07:28:24;100356.09;;;8.68;61.70
85623;BME280;76049;43.076;25.632;2024-02-16T07:33:32;100359.41;;;8.77;60.59
85623;BME280;76049;43.076;25.632;2024-02-16T07:38:40;100356.94;;;8.90;60.09
85623;BME280;76049;43.076;25.632;2024-02-16T07:43:48;100359.80;;;9.03;58.88
85623;BME280;76049;43.076;25.632;2024-02-16T07:48:57;100359.48;;;9.13;57.45
85623;BME280;76049;43.076;25.632;2024-02-16T07:54:06;100365.13;;;9.19;57.26
85623;BME280;76049;43.076;25.632;2024-02-16T07:59:14;100365.86;;;9.30;56.90
85623;BME280;76049;43.076;25.632;2024-02-16T08:04:22;100366.30;;;9.36;56.42
85623;BME280;76049;43.076;25.632;2024-02-16T08:09:30;100370.39;;;9.53;59.97
85623;BME280;76049;43.076;25.632;2024-02-16T08:14:39;100375.36;;;10.07;61.47
85623;BME280;76049;43.076;25.632;2024-02-16T08:19:54;100382.09;;;10.58;58.71
85623;BME280;76049;43.076;25.632;2024-02-16T08:25:02;100381.97;;;11.08;57.88
85623;BME280;76049;43.076;25.632;2024-02-16T08:30:13;100386.80;;;11.45;54.81
85623;BME280;76049;43.076;25.632;2024-02-16T08:35:21;100388.77;;;11.67;54.05
85623;BME280;76049;43.076;25.632;2024-02-16T08:40:28;100387.67;;;11.92;53.83
85623;BME280;76049;43.076;25.632;2024-02-16T08:45:36;100386.41;;;12.14;51.02
85623;BME280;76049;43.076;25.632;2024-02-16T08:50:45;100384.77;;;11.79;50.70
85623;BME280;76049;43.076;25.632;2024-02-16T08:55:53;100389.04;;;11.68;49.82
85623;BME280;76049;43.076;25.632;2024-02-16T09:01:01;100390.08;;;11.34;49.27
85623;BME280;76049;43.076;25.632;2024-02-16T09:06:10;100389.44;;;10.93;49.80
85623;BME280;76049;43.076;25.632;2024-02-16T09:11:19;100395.55;;;10.80;50.34
85623;BME280;76049;43.076;25.632;2024-02-16T09:16:27;100397.21;;;10.74;50.08
85623;BME280;76049;43.076;25.632;2024-02-16T09:21:35;100397.23;;;10.60;49.72
85623;BME280;76049;43.076;25.632;2024-02-16T09:26:42;100398.83;;;10.53;49.60
85623;BME280;76049;43.076;25.632;2024-02-16T09:31:53;100403.21;;;10.49;49.68
85623;BME280;76049;43.076;25.632;2024-02-16T09:37:01;100399.72;;;10.51;49.18
85623;BME280;76049;43.076;25.632;2024-02-16T09:42:11;100400.89;;;10.53;48.45
85623;BME280;76049;43.076;25.632;2024-02-16T09:47:22;100402.57;;;10.57;48.40
85623;BME280;76049;43.076;25.632;2024-02-16T09:52:32;100401.16;;;10.60;48.60
85623;BME280;76049;43.076;25.632;2024-02-16T09:57:40;100409.21;;;10.64;48.47
85623;BME280;76049;43.076;25.632;2024-02-16T10:02:50;100409.71;;;10.68;48.00
85623;BME280;76049;43.076;25.632;2024-02-16T10:07:58;100402.98;;;10.70;47.91
85623;BME280;76049;43.076;25.632;2024-02-16T10:13:06;100394.42;;;10.72;47.86
85623;BME280;76049;43.076;25.632;2024-02-16T10:18:14;100381.98;;;10.69;47.99
85623;BME280;76049;43.076;25.632;2024-02-16T10:23:22;100380.61;;;10.72;48.04
85623;BME280;76049;43.076;25.632;2024-02-16T10:28:31;100383.10;;;10.77;47.97
85623;BME280;76049;43.076;25.632;2024-02-16T10:33:39;100381.98;;;10.83;47.98
85623;BME280;76049;43.076;25.632;2024-02-16T10:38:50;100371.15;;;10.87;47.80
85623;BME280;76049;43.076;25.632;2024-02-16T10:43:58;100370.84;;;10.89;47.83
85623;BME280;76049;43.076;25.632;2024-02-16T10:49:06;100365.94;;;10.85;47.89
85623;BME280;76049;43.076;25.632;2024-02-16T10:54:17;100360.69;;;10.82;48.28
85623;BME280;76049;43.076;25.632;2024-02-16T10:59:25;100358.64;;;10.83;48.16
85623;BME280;76049;43.076;25.632;2024-02-16T11:04:39;100359.80;;;10.85;47.70
85623;BME280;76049;43.076;25.632;2024-02-16T11:09:48;100357.02;;;10.86;47.73
85623;BME280;76049;43.076;25.632;2024-02-16T11:14:58;100356.23;;;10.84;47.17
85623;BME280;76049;43.076;25.632;2024-02-16T11:20:08;100352.61;;;10.82;46.75
85623;BME280;76049;43.076;25.632;2024-02-16T11:25:16;100346.09;;;10.81;46.25
85623;BME280;76049;43.076;25.632;2024-02-16T11:30:24;100342.98;;;10.81;46.31
85623;BME280;76049;43.076;25.632;2024-02-16T11:35:32;100337.67;;;10.82;46.04
85623;BME280;76049;43.076;25.632;2024-02-16T11:40:40;100335.52;;;10.84;46.01
85623;BME280;76049;43.076;25.632;2024-02-16T11:45:48;100333.94;;;10.88;46.10
85623;BME280;76049;43.076;25.632;2024-02-16T11:51:02;100336.92;;;10.93;45.68
85623;BME280;76049;43.076;25.632;2024-02-16T11:56:10;100333.94;;;10.99;45.73
85623;BME280;76049;43.076;25.632;2024-02-16T12:01:28;100326.31;;;11.02;46.01
85623;BME280;76049;43.076;25.632;2024-02-16T12:06:36;100325.73;;;11.04;45.61
85623;BME280;76049;43.076;25.632;2024-02-16T12:11:43;100325.40;;;11.07;45.76
85623;BME280;76049;43.076;25.632;2024-02-16T12:16:54;100326.09;;;11.05;45.50
85623;BME280;76049;43.076;25.632;2024-02-16T12:22:03;100317.56;;;11.05;45.40
85623;BME280;76049;43.076;25.632;2024-02-16T12:27:11;100311.98;;;11.05;45.52
85623;BME280;76049;43.076;25.632;2024-02-16T12:32:18;100309.56;;;11.08;45.70
85623;BME280;76049;43.076;25.632;2024-02-16T12:37:26;100310.48;;;11.13;45.49
85623;BME280;76049;43.076;25.632;2024-02-16T12:42:34;100312.41;;;11.19;45.49
85623;BME280;76049;43.076;25.632;2024-02-16T12:47:42;100312.33;;;11.20;45.29
85623;BME280;76049;43.076;25.632;2024-02-16T12:52:50;100308.31;;;11.23;45.18
85623;BME280;76049;43.076;25.632;2024-02-16T12:57:59;100303.84;;;11.25;44.84
85623;BME280;76049;43.076;25.632;2024-02-16T13:03:07;100310.18;;;11.27;44.94
85623;BME280;76049;43.076;25.632;2024-02-16T13:08:16;100308.55;;;11.28;45.18
85623;BME280;76049;43.076;25.632;2024-02-16T13:13:25;100306.45;;;11.28;45.01
85623;BME280;76049;43.076;25.632;2024-02-16T13:18:32;100305.48;;;11.26;45.17
85623;BME280;76049;43.076;25.632;2024-02-16T13:23:41;100308.80;;;11.28;45.32
85623;BME280;76049;43.076;25.632;2024-02-16T13:28:49;100306.88;;;11.31;45.47
85623;BME280;76049;43.076;25.632;2024-02-16T13:34:00;100307.77;;;11.32;45.42
85623;BME280;76049;43.076;25.632;2024-02-16T13:39:09;100302.32;;;11.34;45.54
85623;BME280;76049;43.076;25.632;2024-02-16T13:44:18;100297.11;;;11.38;45.60
85623;BME280;76049;43.076;25.632;2024-02-16T13:49:28;100296.84;;;11.39;45.64
85623;BME280;76049;43.076;25.632;2024-02-16T13:54:36;100293.54;;;11.39;45.50
85623;BME280;76049;43.076;25.632;2024-02-16T13:59:43;100298.77;;;11.36;45.73
85623;BME280;76049;43.076;25.632;2024-02-16T14:04:52;100303.63;;;11.33;46.10
85623;BME280;76049;43.076;25.632;2024-02-16T14:10:03;100303.98;;;11.29;45.92
85623;BME280;76049;43.076;25.632;2024-02-16T14:15:12;100309.92;;;11.23;46.33
85623;BME280;76049;43.076;25.632;2024-02-16T14:20:22;100308.05;;;11.21;46.42
85623;BME280;76049;43.076;25.632;2024-02-16T14:25:32;100311.42;;;11.18;46.44
85623;BME280;76049;43.076;25.632;2024-02-16T14:30:41;100312.54;;;11.11;46.85
85623;BME280;76049;43.076;25.632;2024-02-16T14:35:49;100310.13;;;11.04;47.11
85623;BME280;76049;43.076;25.632;2024-02-16T14:40:58;100308.30;;;11.00;47.28
85623;BME280;76049;43.076;25.632;2024-02-16T14:46:09;100309.09;;;10.97;47.33
85623;BME280;76049;43.076;25.632;2024-02-16T14:51:17;100311.05;;;10.93;47.47
85623;BME280;76049;43.076;25.632;2024-02-16T14:56:26;100309.97;;;10.91;47.69
85623;BME280;76049;43.076;25.632;2024-02-16T15:01:33;100307.39;;;10.89;47.72
85623;BME280;76049;43.076;25.632;2024-02-16T15:06:43;100307.06;;;10.89;47.58
85623;BME280;76049;43.076;25.632;2024-02-16T15:11:51;100313.40;;;10.88;47.79
85623;BME280;76049;43.076;25.632;2024-02-16T15:16:59;100317.98;;;10.87;47.68
85623;BME280;76049;43.076;25.632;2024-02-16T15:22:09;100322.45;;;10.84;47.71
85623;BME280;76049;43.076;25.632;2024-02-16T15:27:17;100324.91;;;10.82;47.86
85623;BME280;76049;43.076;25.632;2024-02-16T15:32:24;100323.52;;;10.80;47.82
85623;BME280;76049;43.076;25.632;2024-02-16T15:37:33;100325.27;;;10.77;48.00
85623;BME280;76049;43.076;25.632;2024-02-16T15:42:41;100329.58;;;10.73;47.89
85623;BME280;76049;43.076;25.632;2024-02-16T15:47:50;100332.64;;;10.71;47.88
85623;BME280;76049;43.076;25.632;2024-02-16T15:52:58;100335.34;;;10.67;47.75
85623;BME280;76049;43.076;25.632;2024-02-16T15:58:07;100336.05;;;10.63;47.87
85623;BME280;76049;43.076;25.632;2024-02-16T16:03:15;100336.45;;;10.58;47.94
85623;BME280;76049;43.076;25.632;2024-02-16T16:08:24;100335.13;;;10.50;48.30
85623;BME280;76049;43.076;25.632;2024-02-16T16:13:31;100339.08;;;10.42;48.70
85623;BME280;76049;43.076;25.632;2024-02-16T16:18:41;100342.22;;;10.31;49.09
85623;BME280;76049;43.076;25.632;2024-02-16T16:23:49;100344.95;;;10.20;49.19
85623;BME280;76049;43.076;25.632;2024-02-16T16:28:57;100345.58;;;10.09;49.61
85623;BME280;76049;43.076;25.632;2024-02-16T16:34:05;100357.51;;;9.99;50.10
85623;BME280;76049;43.076;25.632;2024-02-16T16:39:13;100361.38;;;9.90;50.72
85623;BME280;76049;43.076;25.632;2024-02-16T16:44:22;100364.95;;;9.80;51.36
85623;BME280;76049;43.076;25.632;2024-02-16T16:49:31;100374.06;;;9.71;51.65
85623;BME280;76049;43.076;25.632;2024-02-16T16:54:39;100377.77;;;9.62;51.83
85623;BME280;76049;43.076;25.632;2024-02-16T16:59:47;100386.95;;;9.53;52.03
85623;BME280;76049;43.076;25.632;2024-02-16T17:04:55;100395.35;;;9.47;52.10
85623;BME280;76049;43.076;25.632;2024-02-16T17:10:03;100394.46;;;9.40;52.41
85623;BME280;76049;43.076;25.632;2024-02-16T17:15:11;100404.77;;;9.15;52.82
85623;BME280;76049;43.076;25.632;2024-02-16T17:20:24;100405.15;;;8.97;53.35
85623;BME280;76049;43.076;25.632;2024-02-16T17:25:32;100404.69;;;8.86;53.59
85623;BME280;76049;43.076;25.632;2024-02-16T17:30:39;100406.36;;;8.82;53.97
85623;BME280;76049;43.076;25.632;2024-02-16T17:35:49;100408.05;;;8.82;54.70
85623;BME280;76049;43.076;25.632;2024-02-16T17:40:57;100409.80;;;8.88;55.20
85623;BME280;76049;43.076;25.632;2024-02-16T17:46:07;100411.05;;;8.91;55.09
85623;BME280;76049;43.076;25.632;2024-02-16T17:51:15;100412.53;;;8.92;56.02
85623;BME280;76049;43.076;25.632;2024-02-16T17:56:23;100417.80;;;8.95;55.60
85623;BME280;76049;43.076;25.632;2024-02-16T18:01:34;100418.88;;;8.93;55.42
85623;BME280;76049;43.076;25.632;2024-02-16T18:06:43;100420.05;;;8.89;55.66
85623;BME280;76049;43.076;25.632;2024-02-16T18:11:51;100424.69;;;8.88;55.74
85623;BME280;76049;43.076;25.632;2024-02-16T18:16:59;100424.84;;;8.88;55.96
85623;BME280;76049;43.076;25.632;2024-02-16T18:22:08;100425.76;;;8.90;56.09
85623;BME280;76049;43.076;25.632;2024-02-16T18:27:16;100429.77;;;8.85;56.17
85623;BME280;76049;43.076;25.632;2024-02-16T18:32:24;100431.39;;;8.84;56.62
85623;BME280;76049;43.076;25.632;2024-02-16T18:37:32;100437.45;;;8.84;56.64
85623;BME280;76049;43.076;25.632;2024-02-16T18:42:41;100437.47;;;8.83;56.77
85623;BME280;76049;43.076;25.632;2024-02-16T18:47:49;100442.02;;;8.80;56.99
85623;BME280;76049;43.076;25.632;2024-02-16T18:52:58;100446.73;;;8.79;56.98
85623;BME280;76049;43.076;25.632;2024-02-16T18:58:05;100445.05;;;8.75;57.29
85623;BME280;76049;43.076;25.632;2024-02-16T19:03:14;100449.15;;;8.72;57.46
85623;BME280;76049;43.076;25.632;2024-02-16T19:08:23;100455.01;;;8.72;57.71
85623;BME280;76049;43.076;25.632;2024-02-16T19:13:31;100458.02;;;8.70;57.95
85623;BME280;76049;43.076;25.632;2024-02-16T19:18:39;100458.00;;;8.67;57.87
85623;BME280;76049;43.076;25.632;2024-02-16T19:23:47;100461.45;;;8.63;57.90
85623;BME280;76049;43.076;25.632;2024-02-16T19:28:59;100463.27;;;8.61;58.05
85623;BME280;76049;43.076;25.632;2024-02-16T19:34:08;100468.59;;;8.60;58.40
85623;BME280;76049;43.076;25.632;2024-02-16T19:39:16;100466.59;;;8.56;58.48
85623;BME280;76049;43.076;25.632;2024-02-16T19:44:24;100469.31;;;8.56;58.41
85623;BME280;76049;43.076;25.632;2024-02-16T19:49:34;100461.98;;;8.53;58.44
85623;BME280;76049;43.076;25.632;2024-02-16T19:54:43;100458.55;;;8.47;58.54
85623;BME280;76049;43.076;25.632;2024-02-16T20:05:18;100454.58;;;8.38;58.92
85623;BME280;76049;43.076;25.632;2024-02-16T20:10:29;100448.64;;;8.32;59.22
85623;BME280;76049;43.076;25.632;2024-02-16T20:15:38;100448.60;;;8.35;59.28
85623;BME280;76049;43.076;25.632;2024-02-16T20:20:46;100446.06;;;8.45;59.33
85623;BME280;76049;43.076;25.632;2024-02-16T20:25:55;100452.97;;;8.49;59.10
85623;BME280;76049;43.076;25.632;2024-02-16T20:31:03;100458.15;;;8.44;59.41
85623;BME280;76049;43.076;25.632;2024-02-16T20:36:12;100458.83;;;8.33;59.79
85623;BME280;76049;43.076;25.632;2024-02-16T20:41:21;100462.84;;;8.24;60.03
85623;BME280;76049;43.076;25.632;2024-02-16T20:46:29;100461.50;;;8.15;60.08
85623;BME280;76049;43.076;25.632;2024-02-16T20:54:24;100466.52;;;8.16;60.78
85623;BME280;76049;43.076;25.632;2024-02-16T20:59:34;100470.33;;;8.15;60.92
85623;BME280;76049;43.076;25.632;2024-02-16T21:04:42;100467.73;;;8.14;60.77
85623;BME280;76049;43.076;25.632;2024-02-16T21:09:49;100471.45;;;8.09;60.69
85623;BME280;76049;43.076;25.632;2024-02-16T21:14:57;100477.05;;;7.91;60.87
85623;BME280;76049;43.076;25.632;2024-02-16T21:20:07;100476.17;;;7.88;61.20
85623;BME280;76049;43.076;25.632;2024-02-16T21:25:15;100474.89;;;7.92;61.14
85623;BME280;76049;43.076;25.632;2024-02-16T21:30:23;100474.89;;;7.97;61.41
85623;BME280;76049;43.076;25.632;2024-02-16T21:35:30;100476.38;;;7.98;61.50
85623;BME280;76049;43.076;25.632;2024-02-16T21:40:39;100478.06;;;7.95;61.69
85623;BME280;76049;43.076;25.632;2024-02-16T21:45:49;100482.94;;;7.87;61.86
85623;BME280;76049;43.076;25.632;2024-02-16T21:50:57;100483.39;;;7.81;62.08
85623;BME280;76049;43.076;25.632;2024-02-16T21:56:05;100481.34;;;7.77;62.17
85623;BME280;76049;43.076;25.632;2024-02-16T22:01:13;100477.58;;;7.77;62.26
85623;BME280;76049;43.076;25.632;2024-02-16T22:06:22;100479.61;;;7.75;62.43
85623;BME280;76049;43.076;25.632;2024-02-16T22:11:30;100480.35;;;7.71;62.41
85623;BME280;76049;43.076;25.632;2024-02-16T22:16:41;100480.02;;;7.71;62.11
85623;BME280;76049;43.076;25.632;2024-02-16T22:21:49;100483.31;;;7.72;61.93
85623;BME280;76049;43.076;25.632;2024-02-16T22:26:56;100484.19;;;7.65;61.63
85623;BME280;76049;43.076;25.632;2024-02-16T22:32:05;100483.15;;;7.55;61.36
85623;BME280;76049;43.076;25.632;2024-02-16T22:37:12;100490.27;;;7.50;61.47
85623;BME280;76049;43.076;25.632;2024-02-16T22:42:20;100494.13;;;7.39;61.31
85623;BME280;76049;43.076;25.632;2024-02-16T22:47:28;100504.45;;;7.30;60.96
85623;BME280;76049;43.076;25.632;2024-02-16T22:52:36;100499.41;;;7.16;61.06
85623;BME280;76049;43.076;25.632;2024-02-16T22:57:43;100493.16;;;7.01;61.21
85623;BME280;76049;43.076;25.632;2024-02-16T23:02:51;100492.63;;;6.88;61.47
85623;BME280;76049;43.076;25.632;2024-02-16T23:08:02;100494.41;;;6.79;61.76
85623;BME280;76049;43.076;25.632;2024-02-16T23:13:10;100489.88;;;6.76;61.75
85623;BME280;76049;43.076;25.632;2024-02-16T23:18:18;100488.40;;;6.76;61.74
85623;BME280;76049;43.076;25.632;2024-02-16T23:23:27;100489.13;;;6.73;61.56
85623;BME280;76049;43.076;25.632;2024-02-16T23:28:34;100491.55;;;6.62;61.70
85623;BME280;76049;43.076;25.632;2024-02-16T23:33:42;100494.37;;;6.48;62.13
85623;BME280;76049;43.076;25.632;2024-02-16T23:38:50;100494.27;;;6.37;62.54
85623;BME280;76049;43.076;25.632;2024-02-16T23:43:58;100493.96;;;6.27;62.91
85623;BME280;76049;43.076;25.632;2024-02-16T23:49:07;100493.95;;;6.16;62.95
85623;BME280;76049;43.076;25.632;2024-02-16T23:54:15;100502.44;;;6.02;62.95
85623;BME280;76049;43.076;25.632;2024-02-16T23:59:23;100507.66;;;5.91;63.14
